KFKL

Venango Regional Airport

Franklin, Pennsylvania, USA
METAR KFKL 150056Z AUTO 28004KT 10SM CLR 21/16 A3000 RMK AO2 SLP153 T02110161
Observed Flight Rules
Aug-15 @ 00:56 UTC (10 minutes ago) Visual Flight Rules
Wind Visibility Clouds
280° at 4 knots 10 miles
  • Clear skies
Temperatures Readings
Current 21°C / 70°F
Dewpoint 16°C / 61°F
Humidity 73%
Altimeter 30" Hg
Pressure 1015.3 hPa
Elevation 469
METAR KFKL 150056Z AUTO 28004KT 10SM CLR 21/16 A3000 RMK AO2 SLP153 T02110161
Observed Flight Rules
Aug-15 @ 00:56 UTC
(10 minutes ago)
VFR
Wind Visibility
280° at 4 knots 10 miles
Clouds
  • Clear skies
Temperature Dewpoint
21°C / 70°F 16°C / 61°F
Humidity Altimeter Pressure
73% 30" Hg 1015.3 hPa